Time;durP1;ratioP1;P1;durP2;ratioP2;P2;SDS_P1;SDS_P2;PMS_P1;PMS_P2;Temp;Humidity;BMP_temperature;BMP_pressure;BME280_temperature;BME280_humidity;BME280_pressure;Samples;Min_cycle;Max_cycle;Signal;HPM_P1;HPM_P2
2022/04/03 00:00:27;;;;;;;5.03;3.85;;;-2.20;99.90;;;;;;4862300;29;20573;-65
2022/04/03 00:02:52;;;;;;;5.82;4.38;;;-2.20;99.90;;;;;;4862146;29;20144;-64
2022/04/03 00:05:19;;;;;;;5.80;4.65;;;-2.20;99.90;;;;;;4862670;29;20501;-64
2022/04/03 00:07:46;;;;;;;6.78;4.93;;;-2.30;99.90;;;;;;4862596;29;20060;-65
2022/04/03 00:10:13;;;;;;;7.22;5.10;;;-2.30;99.90;;;;;;4878660;29;20068;-63
2022/04/03 00:12:40;;;;;;;7.72;5.05;;;-2.30;99.90;;;;;;4843625;29;20140;-66
2022/04/03 00:15:06;;;;;;;6.85;4.68;;;-2.30;99.90;;;;;;4860815;29;20057;-66
2022/04/03 00:17:31;;;;;;;6.55;5.13;;;-2.30;99.90;;;;;;4860935;29;20045;-64
2022/04/03 00:19:57;;;;;;;6.00;4.78;;;-2.30;99.90;;;;;;4846976;29;20064;-63
2022/04/03 00:22:24;;;;;;;6.90;4.65;;;-2.30;99.90;;;;;;4846473;29;20048;-65
2022/04/03 00:24:50;;;;;;;7.68;4.13;;;-2.30;99.90;;;;;;4878991;29;20087;-65
2022/04/03 00:27:16;;;;;;;9.25;5.57;;;-2.20;99.90;;;;;;4844820;29;20428;-66
2022/04/03 00:29:41;;;;;;;7.20;4.40;;;-2.20;99.90;;;;;;4861777;29;20056;-65
2022/04/03 00:32:07;;;;;;;5.45;4.00;;;-2.20;99.90;;;;;;4861782;29;20053;-63
2022/04/03 00:34:33;;;;;;;5.28;4.05;;;-2.20;99.90;;;;;;4861638;29;20060;-63
2022/04/03 00:36:59;;;;;;;4.63;4.00;;;-2.20;99.90;;;;;;4862166;29;20405;-65
2022/04/03 00:39:24;;;;;;;4.85;3.38;;;-2.20;99.90;;;;;;4861936;29;20056;-64
2022/04/03 00:41:50;;;;;;;6.53;4.03;;;-2.20;99.90;;;;;;4861929;29;20414;-64
2022/04/03 00:44:17;;;;;;;5.70;3.80;;;-2.20;99.90;;;;;;4862588;29;20053;-65
2022/04/03 00:46:44;;;;;;;6.60;4.00;;;-2.30;99.90;;;;;;4861688;29;20068;-64
2022/04/03 00:49:10;;;;;;;7.28;4.07;;;-2.30;99.90;;;;;;4861604;29;20053;-64
2022/04/03 00:51:35;;;;;;;4.70;3.95;;;-2.30;99.90;;;;;;4861458;29;20068;-64
2022/04/03 00:54:01;;;;;;;5.93;4.20;;;-2.40;99.90;;;;;;4861863;29;20164;-64
2022/04/03 00:56:26;;;;;;;6.70;3.75;;;-2.30;99.90;;;;;;4861332;29;20045;-64
2022/04/03 00:58:53;;;;;;;4.97;4.10;;;-2.30;99.90;;;;;;4861203;29;20517;-64
2022/04/03 01:01:20;;;;;;;5.15;4.18;;;-2.40;99.90;;;;;;4861174;29;20100;-64
2022/04/03 01:03:46;;;;;;;8.57;4.30;;;-2.30;99.90;;;;;;4861951;29;20081;-63
2022/04/03 01:06:11;;;;;;;7.45;4.10;;;-2.30;99.90;;;;;;4861172;29;20525;-66
2022/04/03 01:08:37;;;;;;;5.45;4.30;;;-2.30;99.90;;;;;;4861539;29;20132;-64
2022/04/03 01:11:03;;;;;;;7.07;4.53;;;-2.40;99.90;;;;;;4861264;29;20056;-64
2022/04/03 01:13:28;;;;;;;7.20;4.60;;;-2.40;99.90;;;;;;4860918;29;20057;-66
2022/04/03 01:15:59;;;;;;;5.35;4.18;;;-2.40;99.90;;;;;;4860531;29;20553;-67
2022/04/03 01:18:25;;;;;;;6.03;4.47;;;-2.30;99.90;;;;;;4861655;29;20056;-64
2022/04/03 01:20:52;;;;;;;4.47;3.88;;;-2.40;99.90;;;;;;4862318;29;20494;-66
2022/04/03 01:23:19;;;;;;;5.22;4.10;;;-2.40;99.90;;;;;;4861979;29;20045;-66
2022/04/03 01:25:45;;;;;;;6.15;4.32;;;-2.40;99.90;;;;;;4861651;29;20498;-64
2022/04/03 01:28:11;;;;;;;4.35;3.85;;;-2.40;99.90;;;;;;4860668;29;20132;-65
2022/04/03 01:30:36;;;;;;;7.00;4.35;;;-2.50;99.90;;;;;;4861604;29;20073;-64
2022/04/03 01:33:02;;;;;;;5.05;4.13;;;-2.40;99.90;;;;;;4881085;29;20065;-65
2022/04/03 01:35:27;;;;;;;6.53;3.95;;;-2.50;99.90;;;;;;4865075;29;20490;-64
2022/04/03 01:37:53;;;;;;;5.47;4.00;;;-2.50;99.90;;;;;;4864872;29;20061;-64
2022/04/03 01:40:18;;;;;;;5.53;4.15;;;-2.40;99.90;;;;;;4864935;29;20129;-66
2022/04/03 01:42:44;;;;;;;6.07;3.67;;;-2.50;99.90;;;;;;4863989;29;20087;-65
2022/04/03 01:45:10;;;;;;;6.70;4.25;;;-2.40;99.90;;;;;;4864443;29;20095;-66
2022/04/03 01:47:37;;;;;;;6.32;3.55;;;-2.40;99.90;;;;;;4864816;29;20057;-65
2022/04/03 01:50:06;;;;;;;6.18;4.40;;;-2.50;99.90;;;;;;4864861;29;20180;-65
2022/04/03 01:52:32;;;;;;;5.07;3.63;;;-2.50;99.90;;;;;;4881656;29;20057;-64
2022/04/03 01:54:59;;;;;;;5.25;3.90;;;-2.40;99.90;;;;;;4863910;29;20627;-65
2022/04/03 01:57:25;;;;;;;5.03;3.22;;;-2.50;99.90;;;;;;4864166;29;20053;-64
2022/04/03 01:59:51;;;;;;;5.55;4.00;;;-2.50;99.90;;;;;;4881598;29;20044;-65
2022/04/03 02:02:16;;;;;;;5.90;4.30;;;-2.50;99.90;;;;;;4864486;29;20049;-65
2022/04/03 02:04:42;;;;;;;6.35;3.85;;;-2.50;99.90;;;;;;4863877;29;20137;-66
2022/04/03 02:07:08;;;;;;;8.30;4.60;;;-2.50;99.90;;;;;;4856850;29;20053;-64
2022/04/03 02:09:34;;;;;;;5.60;4.45;;;-2.40;99.90;;;;;;4863931;29;20390;-65
2022/04/03 02:12:00;;;;;;;5.15;4.25;;;-2.40;99.90;;;;;;4863132;29;20052;-64
2022/04/03 02:14:26;;;;;;;4.75;4.07;;;-2.20;99.90;;;;;;4860816;29;20387;-66
2022/04/03 02:16:54;;;;;;;5.63;3.90;;;-2.10;99.90;;;;;;4861029;29;20065;-65
2022/04/03 02:19:20;;;;;;;5.90;4.30;;;-2.00;99.90;;;;;;4861355;29;20456;-65
2022/04/03 02:21:46;;;;;;;7.28;4.72;;;-2.00;99.90;;;;;;4860651;29;20060;-64
2022/04/03 02:24:11;;;;;;;6.38;4.78;;;-2.00;99.90;;;;;;4861005;29;20493;-65
2022/04/03 02:26:37;;;;;;;8.50;4.72;;;-1.90;99.90;;;;;;4859949;29;20570;-65
2022/04/03 02:29:02;;;;;;;7.30;4.30;;;-2.00;99.90;;;;;;4860652;29;20113;-64
2022/04/03 02:31:28;;;;;;;6.55;4.72;;;-1.90;99.90;;;;;;4860666;29;20128;-65
2022/04/03 02:33:53;;;;;;;7.50;4.53;;;-1.90;99.90;;;;;;4861319;29;20053;-64
2022/04/03 02:36:19;;;;;;;7.13;4.28;;;-1.90;99.90;;;;;;4861693;29;20046;-66
2022/04/03 02:38:44;;;;;;;7.20;3.75;;;-1.90;99.90;;;;;;4860561;29;20097;-65
2022/04/03 02:41:11;;;;;;;5.95;4.07;;;-2.00;99.90;;;;;;4850508;29;20061;-65
2022/04/03 02:43:36;;;;;;;5.18;4.13;;;-2.00;99.90;;;;;;4859668;29;20367;-66
2022/04/03 02:46:02;;;;;;;5.53;3.42;;;-2.10;99.90;;;;;;4860416;29;20069;-65
2022/04/03 02:48:27;;;;;;;3.95;3.53;;;-2.20;99.90;;;;;;4861117;29;20073;-66
2022/04/03 02:50:53;;;;;;;4.15;3.40;;;-2.20;99.90;;;;;;4861937;29;20054;-67
2022/04/03 02:53:19;;;;;;;7.20;3.72;;;-2.30;99.90;;;;;;4861656;29;20431;-64
2022/04/03 02:55:44;;;;;;;6.45;4.07;;;-2.30;99.90;;;;;;4859930;29;20066;-64
2022/04/03 02:58:11;;;;;;;6.95;3.85;;;-2.40;99.90;;;;;;4859866;29;20062;-65
2022/04/03 03:00:37;;;;;;;6.35;3.97;;;-2.40;99.90;;;;;;4845243;29;20045;-65
2022/04/03 03:03:05;;;;;;;5.32;3.53;;;-2.50;99.90;;;;;;4861070;29;20578;-66
2022/04/03 03:05:30;;;;;;;6.22;4.13;;;-2.50;99.90;;;;;;4861100;29;20057;-64
2022/04/03 03:07:56;;;;;;;6.43;4.35;;;-2.50;99.90;;;;;;4860295;29;20057;-65
2022/04/03 03:10:23;;;;;;;6.53;4.25;;;-2.50;99.90;;;;;;4858301;29;20067;-66
2022/04/03 03:12:48;;;;;;;6.32;4.10;;;-2.50;99.90;;;;;;4860561;29;20449;-64
2022/04/03 03:15:15;;;;;;;6.20;3.97;;;-2.50;99.90;;;;;;4862891;29;20052;-64
2022/04/03 03:17:40;;;;;;;7.00;4.75;;;-2.50;99.90;;;;;;4879387;29;20418;-67
2022/04/03 03:20:06;;;;;;;4.75;4.22;;;-2.50;99.90;;;;;;4862874;29;20041;-64
2022/04/03 03:22:33;;;;;;;5.65;4.20;;;-2.40;99.90;;;;;;4862903;29;20470;-64
2022/04/03 03:24:59;;;;;;;5.80;4.75;;;-2.40;99.90;;;;;;4863439;29;20061;-64
2022/04/03 03:27:25;;;;;;;6.90;4.40;;;-2.30;99.90;;;;;;4861972;29;20506;-65
2022/04/03 03:29:50;;;;;;;8.20;4.22;;;-2.30;99.90;;;;;;4862362;29;20061;-67
2022/04/03 03:32:16;;;;;;;4.88;4.05;;;-2.20;99.90;;;;;;4862557;29;20053;-65
2022/04/03 03:34:41;;;;;;;4.50;3.88;;;-2.10;99.90;;;;;;4862327;29;20067;-64
2022/04/03 03:37:08;;;;;;;4.95;4.03;;;-2.00;99.90;;;;;;4862494;29;20067;-65
2022/04/03 03:39:34;;;;;;;5.97;3.92;;;-2.00;99.90;;;;;;4878442;29;20079;-64
2022/04/03 03:42:00;;;;;;;4.72;3.80;;;-1.90;99.90;;;;;;4846145;29;20494;-65
2022/04/03 03:44:25;;;;;;;6.35;4.25;;;-1.90;99.90;;;;;;4863440;29;20478;-64
2022/04/03 03:46:51;;;;;;;7.35;4.78;;;-1.80;99.90;;;;;;4862308;29;20451;-64
2022/04/03 03:49:17;;;;;;;9.38;4.60;;;-1.70;99.90;;;;;;4862950;29;20406;-66
2022/04/03 03:51:42;;;;;;;5.43;4.10;;;-1.60;99.90;;;;;;4879567;29;20876;-64
2022/04/03 03:54:09;;;;;;;5.43;4.07;;;-1.50;99.90;;;;;;4862093;29;20132;-65
2022/04/03 03:56:35;;;;;;;4.43;3.92;;;-1.40;99.90;;;;;;4861264;29;20045;-66
2022/04/03 03:59:00;;;;;;;5.50;4.20;;;-1.40;99.90;;;;;;4861972;29;20060;-68
2022/04/03 04:01:27;;;;;;;8.90;4.53;;;-1.30;99.90;;;;;;4861855;29;20053;-66
2022/04/03 04:03:52;;;;;;;6.25;4.22;;;-1.30;99.90;;;;;;4862631;29;20178;-64
2022/04/03 04:06:18;;;;;;;6.45;4.05;;;-1.20;99.90;;;;;;4861287;29;20144;-64
2022/04/03 04:08:43;;;;;;;7.07;3.83;;;-1.10;99.90;;;;;;4862034;29;20049;-64
2022/04/03 04:11:09;;;;;;;7.10;3.83;;;-0.90;99.90;;;;;;4861276;29;20197;-65
2022/04/03 04:13:35;;;;;;;4.82;3.88;;;-0.80;99.90;;;;;;4861107;29;20108;-65
2022/04/03 04:16:01;;;;;;;6.15;3.65;;;-0.80;99.90;;;;;;4861903;29;20056;-65
2022/04/03 04:18:26;;;;;;;5.18;3.70;;;-0.70;99.90;;;;;;4862579;29;20079;-67
2022/04/03 04:20:53;;;;;;;3.97;3.58;;;-0.70;99.90;;;;;;4862309;29;20057;-65
2022/04/03 04:23:21;;;;;;;4.78;3.75;;;-0.60;99.90;;;;;;4862327;29;20049;-64
2022/04/03 04:25:47;;;;;;;8.80;4.20;;;-0.60;99.90;;;;;;4861368;29;20180;-67
2022/04/03 04:28:13;;;;;;;9.68;3.80;;;-0.60;99.90;;;;;;4878350;29;20156;-65
2022/04/03 04:30:39;;;;;;;6.45;4.00;;;-0.50;99.90;;;;;;4878651;29;20049;-64
2022/04/03 04:33:06;;;;;;;5.07;4.38;;;-0.50;99.90;;;;;;4862225;29;20060;-65
2022/04/03 04:35:32;;;;;;;4.32;3.53;;;-0.50;99.90;;;;;;4862208;29;20490;-65
2022/04/03 04:37:58;;;;;;;6.10;4.22;;;-0.50;99.90;;;;;;4861589;29;20057;-66
2022/04/03 04:40:24;;;;;;;4.07;3.65;;;-0.50;99.90;;;;;;4846121;29;20060;-64
2022/04/03 04:42:50;;;;;;;6.10;4.30;;;-0.40;99.90;;;;;;4861289;29;20053;-64
2022/04/03 04:45:15;;;;;;;4.18;3.75;;;-0.40;99.90;;;;;;4861657;29;20409;-66
2022/04/03 04:47:41;;;;;;;5.68;3.80;;;-0.30;99.90;;;;;;4861971;29;20060;-65
2022/04/03 04:50:09;;;;;;;6.22;4.57;;;-0.30;99.90;;;;;;4861749;29;20064;-66
2022/04/03 04:52:35;;;;;;;5.38;4.78;;;-0.30;99.90;;;;;;4861011;29;20524;-64
2022/04/03 04:55:02;;;;;;;6.43;3.67;;;-0.30;99.90;;;;;;4861841;29;20077;-64
2022/04/03 04:57:27;;;;;;;5.05;4.22;;;-0.40;99.90;;;;;;4859760;29;20057;-66
2022/04/03 04:59:53;;;;;;;5.85;3.85;;;-0.40;99.90;;;;;;4859559;29;20177;-66
2022/04/03 05:02:21;;;;;;;5.50;3.90;;;-0.40;99.90;;;;;;4848956;29;20080;-65
2022/04/03 05:04:47;;;;;;;5.38;4.20;;;-0.50;99.90;;;;;;4861505;29;20063;-64
2022/04/03 05:07:13;;;;;;;5.20;4.28;;;-0.60;99.90;;;;;;4863346;29;20061;-64
2022/04/03 05:09:39;;;;;;;5.03;3.88;;;-0.60;99.90;;;;;;4865353;29;20057;-67
2022/04/03 05:12:05;;;;;;;5.28;3.95;;;-0.70;99.90;;;;;;4864375;29;20053;-66
2022/04/03 05:14:31;;;;;;;8.07;4.25;;;-0.80;99.90;;;;;;4864593;29;20507;-64
2022/04/03 05:16:56;;;;;;;4.38;3.70;;;-0.80;99.90;;;;;;4865078;29;20049;-66
2022/04/03 05:19:26;;;;;;;4.43;4.03;;;-0.40;99.90;;;;;;4865616;29;20500;-63
2022/04/03 05:21:53;;;;;;;5.20;4.00;;;-0.80;99.90;;;;;;4864597;29;20052;-66
2022/04/03 05:24:25;;;;;;;5.00;3.97;;;-0.90;99.90;;;;;;4864905;29;20425;-66
2022/04/03 05:26:51;;;;;;;5.18;4.13;;;-1.00;99.90;;;;;;4848850;29;20053;-64
2022/04/03 05:29:16;;;;;;;5.57;3.75;;;-1.00;99.90;;;;;;4865299;29;20404;-64
2022/04/03 05:31:43;;;;;;;7.07;4.10;;;-1.00;99.90;;;;;;4864507;29;20585;-63
2022/04/03 05:34:08;;;;;;;4.13;3.67;;;-1.00;99.90;;;;;;4860384;29;20049;-63
2022/04/03 05:36:35;;;;;;;4.47;3.55;;;-1.00;99.90;;;;;;4863938;29;20129;-64
2022/04/03 05:39:05;;;;;;;5.70;4.00;;;-1.00;99.90;;;;;;4854803;29;20057;-64
2022/04/03 05:41:32;;;;;;;5.00;3.65;;;-1.00;99.90;;;;;;4871956;29;20057;-66
2022/04/03 05:43:58;;;;;;;7.47;4.22;;;-1.00;99.90;;;;;;4856002;29;20092;-64
2022/04/03 05:46:24;;;;;;;5.32;3.88;;;-1.10;99.90;;;;;;4854945;29;20085;-65
2022/04/03 05:48:50;;;;;;;5.95;3.60;;;-1.10;99.90;;;;;;4849889;29;20054;-65
2022/04/03 05:51:16;;;;;;;6.43;4.07;;;-1.10;99.90;;;;;;4855787;29;20531;-66
2022/04/03 05:53:41;;;;;;;3.92;3.38;;;-1.20;99.90;;;;;;4859586;29;20055;-64
2022/04/03 05:56:07;;;;;;;5.05;4.07;;;-1.20;99.90;;;;;;4859793;29;20053;-68
2022/04/03 05:58:33;;;;;;;4.70;3.95;;;-1.20;99.90;;;;;;4859615;29;20053;-66
2022/04/03 06:00:59;;;;;;;5.70;4.53;;;-1.20;99.90;;;;;;4876129;29;20063;-64
2022/04/03 06:03:25;;;;;;;4.70;4.00;;;-1.20;99.90;;;;;;4860024;29;20045;-64
2022/04/03 06:05:51;;;;;;;6.45;3.70;;;-1.20;99.90;;;;;;4859810;29;20048;-67
2022/04/03 06:08:17;;;;;;;10.05;7.90;;;-1.20;99.90;;;;;;4849103;29;20513;-64
2022/04/03 06:10:43;;;;;;;11.40;7.05;;;-1.20;99.90;;;;;;4862934;29;20438;-67
2022/04/03 06:13:12;;;;;;;13.88;9.00;;;-1.20;99.90;;;;;;4845755;29;20125;-64
2022/04/03 06:15:41;;;;;;;10.38;8.10;;;-1.10;99.90;;;;;;4830535;29;20084;-65
2022/04/03 06:18:09;;;;;;;12.40;9.15;;;-1.00;99.90;;;;;;4845725;29;20064;-64
2022/04/03 06:20:35;;;;;;;10.27;8.00;;;-0.90;99.90;;;;;;4851133;29;20057;-65
2022/04/03 06:23:02;;;;;;;9.88;8.25;;;-0.80;99.90;;;;;;4864531;29;20057;-67
2022/04/03 06:25:28;;;;;;;14.63;12.65;;;-0.70;99.90;;;;;;4864306;29;20049;-66
2022/04/03 06:27:57;;;;;;;16.05;13.48;;;-0.50;99.90;;;;;;4864373;29;20052;-65
2022/04/03 06:30:23;;;;;;;10.82;9.30;;;-0.20;99.90;;;;;;4864808;29;20076;-65
2022/04/03 06:32:49;;;;;;;5.75;4.68;;;0.10;99.90;;;;;;4863764;29;20049;-66
2022/04/03 06:35:14;;;;;;;4.78;4.30;;;0.40;99.90;;;;;;4864570;29;20458;-67
2022/04/03 06:37:40;;;;;;;4.72;3.90;;;0.70;99.90;;;;;;4864537;29;20152;-64
2022/04/03 06:40:07;;;;;;;8.15;3.40;;;0.80;99.90;;;;;;4864803;29;20515;-66
2022/04/03 06:42:33;;;;;;;4.32;3.38;;;0.90;99.90;;;;;;4863627;29;20095;-65
2022/04/03 06:45:00;;;;;;;4.85;3.17;;;1.00;99.90;;;;;;4863938;29;20065;-67
2022/04/03 06:47:31;;;;;;;5.20;3.40;;;1.10;99.90;;;;;;4859128;29;20093;-66
2022/04/03 06:50:04;;;;;;;5.03;3.20;;;1.60;99.90;;;;;;4863699;29;20501;-67
2022/04/03 06:52:30;;;;;;;4.90;3.42;;;1.20;99.90;;;;;;4863590;29;20049;-66
2022/04/03 06:54:55;;;;;;;5.28;3.40;;;1.30;99.90;;;;;;4863639;29;20053;-66
2022/04/03 06:57:21;;;;;;;6.03;3.45;;;1.40;99.90;;;;;;4862929;29;20067;-63
2022/04/03 06:59:48;;;;;;;4.15;2.53;;;1.50;99.90;;;;;;4863625;29;20060;-67
2022/04/03 07:02:14;;;;;;;5.50;3.03;;;1.60;99.90;;;;;;4862919;29;20045;-66
2022/04/03 07:04:40;;;;;;;4.50;3.15;;;1.80;99.90;;;;;;4863449;29;20467;-65
2022/04/03 07:07:05;;;;;;;6.13;3.08;;;1.90;99.90;;;;;;4846424;29;20066;-66
2022/04/03 07:09:37;;;;;;;5.82;2.60;;;2.10;99.90;;;;;;4845183;29;20058;-67
2022/04/03 07:12:03;;;;;;;5.32;2.85;;;2.30;99.90;;;;;;4829318;29;20057;-65
2022/04/03 07:14:36;;;;;;;4.80;2.35;;;2.60;99.90;;;;;;4844950;29;20071;-68
2022/04/03 07:17:05;;;;;;;10.52;2.80;;;2.70;99.90;;;;;;4844737;29;20068;-65
2022/04/03 07:19:31;;;;;;;5.25;2.38;;;2.90;99.90;;;;;;4845232;29;20180;-67
2022/04/03 07:21:57;;;;;;;7.07;2.30;;;3.00;99.90;;;;;;4847588;29;20057;-65
2022/04/03 07:24:24;;;;;;;2.67;2.00;;;3.10;99.90;;;;;;4839499;29;20406;-66
2022/04/03 07:26:49;;;;;;;4.07;1.98;;;3.20;99.90;;;;;;4849143;29;20136;-68
2022/04/03 07:29:15;;;;;;;2.95;1.83;;;3.30;99.90;;;;;;4861550;29;20147;-67
2022/04/03 07:31:41;;;;;;;4.55;2.67;;;3.50;99.90;;;;;;4845355;29;20064;-67
2022/04/03 07:34:10;;;;;;;7.00;2.20;;;3.60;99.90;;;;;;4852611;29;20053;-66
2022/04/03 07:36:36;;;;;;;3.30;2.50;;;3.70;99.90;;;;;;4854425;29;20415;-68
2022/04/03 07:39:04;;;;;;;4.85;2.22;;;3.80;99.90;;;;;;4855289;29;20056;-67
2022/04/03 07:41:30;;;;;;;3.45;2.13;;;3.90;99.90;;;;;;4853548;29;20073;-67
2022/04/03 07:43:59;;;;;;;5.22;2.28;;;4.00;99.90;;;;;;4853304;29;20410;-68
2022/04/03 07:46:24;;;;;;;3.60;2.30;;;4.10;99.90;;;;;;4852725;29;20069;-68
2022/04/03 07:48:50;;;;;;;3.72;2.00;;;4.20;99.90;;;;;;4853094;29;20087;-68
2022/04/03 07:51:15;;;;;;;5.25;2.20;;;4.30;99.90;;;;;;4850377;29;20440;-67
2022/04/03 07:53:41;;;;;;;4.55;1.73;;;4.40;99.90;;;;;;4859587;29;20057;-69
2022/04/03 07:56:07;;;;;;;3.83;1.92;;;4.50;99.90;;;;;;4872361;29;20045;-68
2022/04/03 07:58:34;;;;;;;2.50;1.85;;;4.70;99.90;;;;;;4852071;29;20569;-68
2022/04/03 08:01:00;;;;;;;6.88;1.55;;;4.70;99.90;;;;;;4867735;29;20053;-68
2022/04/03 08:03:26;;;;;;;3.08;2.03;;;4.80;99.90;;;;;;4858241;29;20490;-68
2022/04/03 08:05:55;;;;;;;4.07;1.95;;;4.90;99.90;;;;;;4862777;29;20052;-69
2022/04/03 08:08:21;;;;;;;6.45;1.85;;;4.90;99.90;;;;;;4859510;29;20054;-65
2022/04/03 08:10:47;;;;;;;5.18;2.17;;;5.10;99.90;;;;;;4865446;29;20060;-66
2022/04/03 08:13:14;;;;;;;2.42;1.85;;;5.20;99.90;;;;;;4853087;29;20060;-66
2022/04/03 08:15:40;;;;;;;3.85;1.60;;;5.40;99.90;;;;;;4882989;29;20057;-66
2022/04/03 08:18:06;;;;;;;4.82;1.80;;;5.60;99.90;;;;;;4862488;29;20514;-67
2022/04/03 08:20:32;;;;;;;2.05;1.45;;;5.80;99.90;;;;;;4862490;29;20125;-66
2022/04/03 08:23:01;;;;;;;4.10;1.63;;;5.80;99.90;;;;;;4862967;29;20350;-66
2022/04/03 08:25:27;;;;;;;2.03;1.70;;;5.90;99.90;;;;;;4879125;29;20521;-67
2022/04/03 08:27:55;;;;;;;4.70;1.50;;;6.00;99.90;;;;;;4878884;29;20057;-67
2022/04/03 08:30:23;;;;;;;5.00;2.55;;;6.10;99.90;;;;;;4862531;29;20065;-66
2022/04/03 08:32:52;;;;;;;2.03;1.30;;;6.30;99.90;;;;;;4857295;29;20057;-67
2022/04/03 08:35:20;;;;;;;1.88;1.67;;;6.60;99.90;;;;;;4852228;29;20515;-66
2022/04/03 08:37:47;;;;;;;3.22;1.45;;;6.70;99.90;;;;;;4850887;29;20133;-66
2022/04/03 08:40:14;;;;;;;1.30;1.20;;;6.80;99.90;;;;;;4844102;29;20136;-68
2022/04/03 08:42:40;;;;;;;3.45;1.42;;;6.90;99.90;;;;;;4845457;29;20084;-66
2022/04/03 08:45:11;;;;;;;2.65;1.67;;;6.90;99.90;;;;;;4847689;29;20061;-68
2022/04/03 08:47:48;;;;;;;2.70;1.70;;;7.00;99.90;;;;;;4864102;29;20054;-67
2022/04/03 08:50:15;;;;;;;2.35;1.33;;;6.90;99.90;;;;;;4864631;29;20455;-66
2022/04/03 08:52:47;;;;;;;5.18;2.38;;;6.60;99.90;;;;;;4851738;29;20059;-68
2022/04/03 08:55:14;;;;;;;2.70;1.45;;;6.70;99.90;;;;;;4865082;29;20494;-67
2022/04/03 08:57:40;;;;;;;3.20;1.50;;;6.60;99.90;;;;;;4881633;29;20057;-68
2022/04/03 09:00:07;;;;;;;2.35;1.58;;;6.60;99.90;;;;;;4862589;29;20045;-67
2022/04/03 09:02:33;;;;;;;3.50;1.30;;;6.50;99.90;;;;;;4857704;29;20072;-67
2022/04/03 09:08:00;;;;;;;3.67;1.75;;;6.40;99.90;;;;;;4851998;29;20518;-69
2022/04/03 09:10:27;;;;;;;2.35;1.30;;;6.60;99.90;;;;;;4847467;29;20080;-67
2022/04/03 09:12:57;;;;;;;2.75;1.30;;;6.70;99.90;;;;;;4846619;29;20099;-67
2022/04/03 09:15:23;;;;;;;3.15;2.00;;;6.70;99.90;;;;;;4863796;29;20058;-66
2022/04/03 09:17:52;;;;;;;2.30;1.17;;;6.80;99.90;;;;;;4847162;29;20604;-66
2022/04/03 09:20:37;;;;;;;2.08;1.38;;;6.90;99.90;;;;;;4853228;29;20049;-65
2022/04/03 09:23:08;;;;;;;2.65;1.30;;;7.10;99.90;;;;;;4864845;29;20580;-65
2022/04/03 09:25:41;;;;;;;2.10;1.50;;;7.40;99.90;;;;;;4881882;29;20061;-66
2022/04/03 09:28:12;;;;;;;2.35;1.40;;;7.80;99.90;;;;;;4864959;29;20048;-69
2022/04/03 09:30:43;;;;;;;2.13;1.20;;;7.90;99.90;;;;;;4850050;29;20045;-66
2022/04/03 09:33:29;;;;;;;1.35;1.23;;;7.90;99.90;;;;;;4864901;29;20065;-67
2022/04/03 09:35:58;;;;;;;2.88;1.25;;;7.90;99.90;;;;;;4864711;29;20470;-66
2022/04/03 09:38:27;;;;;;;3.33;1.38;;;7.70;99.90;;;;;;4864862;29;20378;-67
2022/04/03 09:40:53;;;;;;;1.75;1.00;;;7.50;99.90;;;;;;4855964;29;20511;-67
2022/04/03 09:43:25;;;;;;;2.22;1.35;;;7.40;99.90;;;;;;4855506;29;20152;-66
2022/04/03 09:45:55;;;;;;;4.85;1.58;;;7.40;99.90;;;;;;4885502;29;20056;-67
2022/04/03 09:48:29;;;;;;;1.80;1.00;;;7.30;99.90;;;;;;4856678;29;20348;-67
2022/04/03 09:51:10;;;;;;;2.28;1.33;;;7.40;99.90;;;;;;4857714;29;20076;-66
2022/04/03 09:53:53;;;;;;;2.03;0.90;;;7.60;99.90;;;;;;4855726;29;20491;-66
2022/04/03 09:56:22;;;;;;;3.80;1.10;;;7.90;99.90;;;;;;4856117;29;20422;-66
2022/04/03 09:58:50;;;;;;;2.00;1.10;;;8.00;99.90;;;;;;4858902;29;20057;-65
2022/04/03 10:01:26;;;;;;;1.58;0.90;;;8.10;99.90;;;;;;4864919;29;20117;-66
2022/04/03 10:03:53;;;;;;;3.33;1.20;;;8.00;99.90;;;;;;4849549;29;20064;-67
2022/04/03 10:06:21;;;;;;;2.15;1.52;;;8.00;99.90;;;;;;4864324;29;20057;-68
2022/04/03 10:08:47;;;;;;;2.80;1.40;;;7.70;99.90;;;;;;4864747;29;20068;-68
2022/04/03 10:11:14;;;;;;;2.15;1.15;;;7.30;99.90;;;;;;4863082;29;20061;-66
2022/04/03 10:13:40;;;;;;;2.13;1.40;;;7.10;99.90;;;;;;4860564;29;20066;-66
2022/04/03 10:16:05;;;;;;;0.88;0.88;;;6.80;99.90;;;;;;4861275;29;20061;-66
2022/04/03 10:18:33;;;;;;;2.00;1.10;;;6.70;99.90;;;;;;4861237;29;20046;-66
2022/04/03 10:20:59;;;;;;;3.97;1.50;;;6.70;99.90;;;;;;4861544;29;20050;-67
2022/04/03 10:23:28;;;;;;;2.42;1.83;;;6.70;99.90;;;;;;4861034;29;20056;-66
2022/04/03 10:25:59;;;;;;;1.20;1.08;;;6.70;99.90;;;;;;4861535;29;20061;-67
2022/04/03 10:28:37;;;;;;;1.70;1.30;;;6.90;99.90;;;;;;4842180;29;20073;-66
2022/04/03 10:31:07;;;;;;;0.88;0.80;;;7.00;99.90;;;;;;4853473;29;20094;-66
2022/04/03 10:33:38;;;;;;;1.98;1.20;;;7.20;99.90;;;;;;4853357;29;20077;-67
2022/04/03 10:36:07;;;;;;;1.65;1.20;;;7.40;99.90;;;;;;4854342;29;20054;-67
2022/04/03 10:38:38;;;;;;;1.80;1.10;;;7.50;99.90;;;;;;4850355;29;20438;-67
2022/04/03 10:41:06;;;;;;;2.70;1.00;;;7.60;99.90;;;;;;4874273;29;20144;-67
2022/04/03 10:43:37;;;;;;;2.53;1.30;;;7.60;99.90;;;;;;4851873;29;20111;-66
2022/04/03 10:46:03;;;;;;;1.08;0.80;;;7.80;99.90;;;;;;4851574;29;20499;-67
2022/04/03 10:48:30;;;;;;;2.47;1.10;;;7.80;99.90;;;;;;4854757;29;20046;-68
2022/04/03 10:51:02;;;;;;;4.00;1.35;;;7.90;99.90;;;;;;4853403;29;20041;-68
2022/04/03 10:53:32;;;;;;;2.60;1.20;;;8.20;99.90;;;;;;4850730;29;20061;-67
2022/04/03 10:56:01;;;;;;;2.55;1.10;;;8.20;99.90;;;;;;4851943;29;20190;-67
2022/04/03 10:58:48;;;;;;;2.45;1.30;;;8.30;99.90;;;;;;4852439;29;20145;-68
2022/04/03 11:01:31;;;;;;;3.17;1.42;;;8.50;99.90;;;;;;4860236;29;20132;-68
2022/04/03 11:04:13;;;;;;;1.70;1.10;;;8.60;99.90;;;;;;4859970;29;20057;-68
2022/04/03 11:06:40;;;;;;;3.03;0.80;;;8.70;99.90;;;;;;4842042;29;20060;-67
2022/04/03 11:09:33;;;;;;;2.80;1.20;;;8.90;99.90;;;;;;4859710;29;20462;-67
2022/04/03 11:12:00;;;;;;;1.27;1.00;;;9.00;99.90;;;;;;4840784;29;20064;-66
2022/04/03 11:14:52;;;;;;;3.30;0.85;;;9.00;99.90;;;;;;4871098;29;20057;-66
2022/04/03 11:17:19;;;;;;;1.40;1.10;;;8.90;97.50;;;;;;4876566;29;20052;-67
2022/04/03 11:19:46;;;;;;;1.50;1.02;;;8.70;99.90;;;;;;4871457;29;20054;-66
2022/04/03 11:22:17;;;;;;;1.38;0.90;;;8.80;99.90;;;;;;4860207;29;20053;-68
2022/04/03 11:24:43;;;;;;;1.95;0.98;;;9.00;99.90;;;;;;4844870;29;20125;-67
2022/04/03 11:27:09;;;;;;;1.65;1.02;;;9.00;99.90;;;;;;4844546;29;20100;-67
2022/04/03 11:29:35;;;;;;;2.45;0.80;;;9.10;99.90;;;;;;4852016;29;20355;-68
2022/04/03 11:32:06;;;;;;;1.73;0.88;;;9.00;99.90;;;;;;4870366;29;20533;-67
2022/04/03 11:34:33;;;;;;;2.87;0.90;;;9.00;99.90;;;;;;4859817;29;20132;-67
2022/04/03 11:37:00;;;;;;;2.63;0.80;;;8.90;99.90;;;;;;4863269;29;20053;-66
2022/04/03 11:39:35;;;;;;;1.77;0.90;;;8.90;99.90;;;;;;4863273;29;20101;-66
2022/04/03 11:42:03;;;;;;;1.83;0.70;;;8.80;85.40;;;;;;4862874;29;20204;-66
2022/04/03 11:44:29;;;;;;;1.33;0.80;;;8.70;99.80;;;;;;4862484;29;20435;-67
2022/04/03 11:46:55;;;;;;;1.15;0.80;;;8.50;99.90;;;;;;4862432;29;20059;-67
2022/04/03 11:49:25;;;;;;;2.45;0.90;;;8.50;99.90;;;;;;4856054;29;20420;-67
2022/04/03 11:52:02;;;;;;;2.15;0.90;;;8.30;99.90;;;;;;4866995;29;20045;-67
2022/04/03 11:54:27;;;;;;;1.77;1.25;;;8.20;99.90;;;;;;4857700;29;20053;-66
2022/04/03 11:57:05;;;;;;;1.60;0.95;;;8.20;99.90;;;;;;4861647;29;20470;-66
2022/04/03 11:59:39;;;;;;;1.67;0.90;;;8.10;99.90;;;;;;4862963;29;20057;-67
2022/04/03 12:02:15;;;;;;;1.45;0.80;;;8.10;99.90;;;;;;4862751;29;20422;-68
2022/04/03 12:04:42;;;;;;;0.95;0.85;;;8.10;99.90;;;;;;4862773;29;20061;-67
2022/04/03 12:07:14;;;;;;;3.65;1.13;;;8.20;99.90;;;;;;4861940;29;20049;-66
2022/04/03 12:09:43;;;;;;;;;;;8.20;99.90;;;;;;4862513;29;20053;-67
2022/04/03 12:12:10;;;;;;;1.27;0.80;;;8.20;98.90;;;;;;4861992;29;19978;-69
2022/04/03 12:14:41;;;;;;;3.90;1.15;;;8.10;99.90;;;;;;4862368;29;20132;-67
2022/04/03 12:17:09;;;;;;;2.85;1.20;;;8.00;99.90;;;;;;4862148;29;20053;-68
2022/04/03 12:19:47;;;;;;;2.13;1.00;;;7.90;99.90;;;;;;4872676;29;20076;-67
2022/04/03 12:22:19;;;;;;;1.50;1.27;;;7.80;99.90;;;;;;4836496;29;20056;-67
2022/04/03 12:24:45;;;;;;;1.42;1.20;;;7.70;99.90;;;;;;4856727;29;20443;-65
2022/04/03 12:27:14;;;;;;;1.42;1.00;;;7.60;99.90;;;;;;4861978;29;20056;-65
2022/04/03 12:29:48;;;;;;;2.00;1.30;;;7.60;99.90;;;;;;4862830;29;20461;-65
2022/04/03 12:32:19;;;;;;;1.55;1.00;;;7.40;99.90;;;;;;4862178;29;20130;-67
2022/04/03 12:34:47;;;;;;;2.50;1.20;;;7.30;99.90;;;;;;4862396;29;20120;-67
2022/04/03 12:37:14;;;;;;;2.83;1.80;;;7.30;99.90;;;;;;4879107;29;20068;-66
2022/04/03 12:39:41;;;;;;;3.85;1.10;;;7.30;99.90;;;;;;4862225;29;20060;-68
2022/04/03 12:42:25;;;;;;;1.70;1.08;;;7.40;99.90;;;;;;4877577;29;20049;-66
2022/04/03 12:45:11;;;;;;;2.00;0.80;;;7.50;99.90;;;;;;4852876;29;20383;-66
2022/04/03 12:47:39;;;;;;;1.80;0.73;;;7.50;99.90;;;;;;4851903;29;20588;-66
2022/04/03 12:50:05;;;;;;;1.27;1.08;;;7.60;99.90;;;;;;4853599;29;20060;-67
2022/04/03 12:52:44;;;;;;;1.58;0.95;;;7.70;99.90;;;;;;4853641;29;20049;-65
2022/04/03 12:55:25;;;;;;;2.22;1.73;;;7.80;99.90;;;;;;4844109;29;20380;-65
2022/04/03 13:00:44;;;;;;;2.20;1.40;;;7.90;99.90;;;;;;4861843;29;20558;-64